Time;durP1;ratioP1;P1;durP2;ratioP2;P2;SDS_P1;SDS_P2;PMS_P1;PMS_P2;Temp;Humidity;BMP_temperature;BMP_pressure;BME280_temperature;BME280_humidity;BME280_pressure;Samples;Min_cycle;Max_cycle;Signal;HPM_P1;HPM_P2
2023/01/08 00:01:10;;;;;;;8.43;3.00;;;11.30;92.10;;;;;;4977955;28;20593;-88
2023/01/08 00:03:36;;;;;;;6.80;3.27;;;11.40;91.50;;;;;;4993997;28;20171;-86
2023/01/08 00:06:04;;;;;;;5.70;2.80;;;11.60;89.10;;;;;;4995525;28;20214;-86
2023/01/08 00:08:37;;;;;;;5.07;2.60;;;11.60;87.40;;;;;;4990412;28;20179;-90
2023/01/08 00:11:03;;;;;;;4.83;0.83;;;11.60;74.80;;;;;;4980985;28;20176;-89
2023/01/08 00:13:30;;;;;;;2.83;0.80;;;10.90;1.00;;;;;;4980944;28;20172;-89
2023/01/08 00:16:11;;;;;;;2.20;0.93;;;10.50;3.00;;;;;;4979415;28;20231;-88
2023/01/08 00:18:37;;;;;;;3.17;1.13;;;10.00;29.30;;;;;;4977726;28;20191;-88
2023/01/08 00:21:03;;;;;;;2.60;1.13;;;9.70;53.80;;;;;;4976476;28;20192;-90
2023/01/08 00:23:29;;;;;;;4.50;1.20;;;9.60;61.70;;;;;;4978607;28;20221;-89
2023/01/08 00:25:54;;;;;;;3.10;1.10;;;9.60;63.40;;;;;;4983486;28;20675;-87
2023/01/08 00:28:20;;;;;;;3.63;1.30;;;9.60;71.30;;;;;;4980399;28;20211;-89
2023/01/08 00:30:46;;;;;;;4.37;1.20;;;9.50;82.10;;;;;;4981795;28;20183;-88
2023/01/08 00:33:13;;;;;;;3.50;0.97;;;9.50;87.80;;;;;;4981033;28;20175;-89
2023/01/08 00:35:39;;;;;;;5.47;1.20;;;9.40;91.00;;;;;;4978871;28;20203;-89
2023/01/08 00:38:06;;;;;;;5.33;1.17;;;9.40;92.90;;;;;;4979521;28;20194;-88
2023/01/08 00:40:35;;;;;;;3.83;1.13;;;9.40;94.10;;;;;;4980179;28;20202;-83
2023/01/08 00:43:01;;;;;;;3.67;0.93;;;9.60;96.10;;;;;;4978791;28;20295;-87
2023/01/08 00:45:27;;;;;;;2.93;1.07;;;9.40;97.10;;;;;;4979292;28;20594;-89
2023/01/08 00:47:53;;;;;;;3.93;1.27;;;9.50;99.10;;;;;;4979774;28;20199;-88
2023/01/08 00:50:18;;;;;;;2.13;0.80;;;9.50;99.90;;;;;;4981938;28;20267;-90
2023/01/08 00:52:44;;;;;;;3.83;1.30;;;9.40;99.90;;;;;;4979504;28;20183;-87
2023/01/08 00:55:09;;;;;;;2.50;0.83;;;9.40;99.90;;;;;;4980031;28;20184;-90
2023/01/08 00:57:37;;;;;;;2.53;1.00;;;9.40;99.90;;;;;;4979570;28;20214;-90
2023/01/08 01:00:05;;;;;;;3.20;1.10;;;9.40;99.90;;;;;;4978359;28;20187;-88
2023/01/08 01:02:31;;;;;;;4.83;1.37;;;9.40;99.90;;;;;;4978898;28;20175;-87
2023/01/08 01:04:57;;;;;;;4.10;0.90;;;9.50;99.90;;;;;;4978572;28;20183;-89
2023/01/08 01:07:22;;;;;;;4.23;1.40;;;9.30;99.90;;;;;;4982608;28;20210;-87
2023/01/08 01:09:49;;;;;;;3.13;1.00;;;9.30;99.90;;;;;;4982874;28;20171;-89
2023/01/08 01:12:14;;;;;;;2.77;1.10;;;9.40;99.90;;;;;;4979277;28;20172;-89
2023/01/08 01:14:42;;;;;;;2.83;1.07;;;9.40;99.90;;;;;;4991747;28;20179;-86
2023/01/08 01:17:10;;;;;;;3.53;1.43;;;9.50;99.90;;;;;;5001539;28;20164;-85
2023/01/08 01:19:35;;;;;;;3.73;1.33;;;9.50;99.90;;;;;;4994708;28;20172;-88
2023/01/08 01:22:52;;;;;;;5.80;1.53;;;9.50;99.90;;;;;;4985446;28;20182;-90
2023/01/08 01:25:18;;;;;;;3.70;1.23;;;9.60;99.90;;;;;;4996602;28;20260;-85
2023/01/08 01:27:45;;;;;;;4.43;1.10;;;9.50;99.90;;;;;;4990200;28;20180;-90
2023/01/08 01:30:12;;;;;;;7.40;1.43;;;9.60;99.90;;;;;;4981645;28;20207;-90
2023/01/08 01:32:41;;;;;;;5.77;1.00;;;9.50;99.90;;;;;;4997331;28;20191;-85
2023/01/08 01:35:07;;;;;;;2.67;0.90;;;9.50;99.90;;;;;;4992639;28;20172;-88
2023/01/08 01:37:36;;;;;;;3.97;1.30;;;9.50;99.90;;;;;;4983264;28;20187;-88
2023/01/08 01:40:06;;;;;;;3.17;1.00;;;9.60;99.90;;;;;;4978198;28;20176;-88
2023/01/08 01:42:42;;;;;;;3.87;1.07;;;9.60;99.90;;;;;;4995981;28;20199;-81
2023/01/08 01:45:17;;;;;;;4.57;1.50;;;9.70;99.90;;;;;;4993774;28;20608;-82
2023/01/08 01:47:53;;;;;;;6.30;1.37;;;9.70;99.90;;;;;;4996517;28;20187;-88
2023/01/08 01:50:56;;;;;;;4.10;1.43;;;9.70;99.90;;;;;;4982827;28;20158;-89
2023/01/08 01:53:34;;;;;;;3.60;1.53;;;9.70;99.90;;;;;;4979376;28;20160;-89
2023/01/08 01:56:01;;;;;;;4.60;1.60;;;9.70;99.90;;;;;;4978734;28;20226;-88
2023/01/08 01:58:30;;;;;;;5.13;1.70;;;9.70;99.90;;;;;;4981133;28;20187;-87
2023/01/08 02:01:00;;;;;;;3.60;1.70;;;9.70;99.90;;;;;;4982444;28;20706;-89
2023/01/08 02:03:29;;;;;;;5.50;1.93;;;9.80;99.90;;;;;;4978896;28;20179;-90
2023/01/08 02:06:14;;;;;;;5.47;1.80;;;9.80;99.90;;;;;;4979306;28;20251;-88
2023/01/08 02:09:05;;;;;;;5.27;1.70;;;9.70;99.90;;;;;;4980151;28;20187;-89
2023/01/08 02:12:15;;;;;;;5.30;2.17;;;9.70;99.90;;;;;;4980128;28;20164;-90
2023/01/08 02:15:01;;;;;;;7.43;2.30;;;9.80;99.90;;;;;;4994416;28;20163;-87
2023/01/08 02:17:44;;;;;;;7.03;2.10;;;9.80;99.90;;;;;;4990076;28;20175;-89
2023/01/08 02:20:15;;;;;;;5.13;2.00;;;9.80;99.90;;;;;;4978683;28;20176;-90
2023/01/08 02:23:04;;;;;;;7.70;2.00;;;9.90;99.90;;;;;;4978524;28;20175;-90
2023/01/08 02:25:34;;;;;;;6.40;2.07;;;9.90;99.90;;;;;;4978781;28;20295;-90
2023/01/08 02:28:03;;;;;;;4.60;2.13;;;9.90;99.90;;;;;;4980744;28;20191;-90
2023/01/08 02:30:29;;;;;;;7.47;2.67;;;10.00;99.90;;;;;;4977316;28;20172;-90
2023/01/08 02:32:54;;;;;;;7.83;2.30;;;10.00;99.90;;;;;;4981849;28;20187;-89
2023/01/08 02:35:20;;;;;;;6.10;2.37;;;10.00;99.90;;;;;;4988827;28;20167;-90
2023/01/08 02:37:46;;;;;;;7.67;2.47;;;10.00;99.90;;;;;;4985129;28;20168;-87
2023/01/08 02:40:15;;;;;;;6.33;2.60;;;10.00;99.90;;;;;;4987267;28;20276;-87
2023/01/08 02:42:54;;;;;;;6.07;2.60;;;9.90;99.90;;;;;;4986079;28;20192;-88
2023/01/08 02:45:42;;;;;;;7.07;2.00;;;9.90;99.90;;;;;;4989846;28;20219;-89
2023/01/08 02:48:38;;;;;;;3.63;1.77;;;9.80;99.90;;;;;;4989636;28;20226;-90
2023/01/08 02:51:13;;;;;;;3.83;1.40;;;9.70;99.90;;;;;;4980273;28;20223;-87
2023/01/08 02:53:47;;;;;;;3.17;1.40;;;9.70;99.90;;;;;;4990157;28;20167;-89
2023/01/08 02:56:22;;;;;;;2.73;1.17;;;9.70;99.90;;;;;;4977784;28;20185;-89
2023/01/08 02:58:49;;;;;;;3.03;1.33;;;9.70;99.90;;;;;;4980726;28;20194;-88
2023/01/08 03:01:16;;;;;;;4.60;1.93;;;9.70;99.90;;;;;;4991557;28;20180;-87
2023/01/08 03:03:51;;;;;;;5.77;2.37;;;9.80;99.90;;;;;;4979924;28;20231;-88
2023/01/08 03:06:19;;;;;;;4.53;1.87;;;9.80;99.90;;;;;;4976975;28;20691;-89
2023/01/08 03:08:48;;;;;;;5.90;1.70;;;9.80;99.90;;;;;;4977709;28;20659;-89
2023/01/08 03:11:17;;;;;;;5.53;1.90;;;10.00;99.90;;;;;;4977012;28;20203;-89
2023/01/08 03:13:57;;;;;;;5.70;2.07;;;10.00;99.90;;;;;;4976222;28;20211;-88
2023/01/08 03:16:34;;;;;;;5.77;1.87;;;9.90;99.90;;;;;;4976005;28;20179;-88
2023/01/08 03:19:18;;;;;;;3.27;1.90;;;9.90;99.90;;;;;;4976664;28;20270;-88
2023/01/08 03:21:45;;;;;;;3.97;2.07;;;9.90;99.90;;;;;;4978190;28;20190;-86
2023/01/08 03:24:18;;;;;;;5.43;1.70;;;10.00;99.90;;;;;;4981576;28;20175;-84
2023/01/08 03:26:49;;;;;;;3.00;1.60;;;9.90;99.90;;;;;;4989549;28;20207;-84
2023/01/08 03:29:19;;;;;;;4.03;1.80;;;9.90;99.90;;;;;;4997623;28;20156;-87
2023/01/08 03:31:47;;;;;;;4.37;1.50;;;9.80;99.40;;;;;;4990728;28;20180;-89
2023/01/08 03:34:14;;;;;;;3.93;1.70;;;9.80;98.10;;;;;;4976304;28;20322;-88
2023/01/08 03:36:47;;;;;;;2.57;1.20;;;9.70;93.70;;;;;;4983075;28;20175;-84
2023/01/08 03:39:27;;;;;;;5.53;1.80;;;9.80;90.60;;;;;;4995996;28;20239;-89
2023/01/08 03:41:58;;;;;;;4.83;1.17;;;9.80;84.30;;;;;;4984121;28;20234;-86
2023/01/08 03:44:31;;;;;;;4.30;1.20;;;9.80;76.30;;;;;;4977252;28;20171;-88
2023/01/08 03:46:59;;;;;;;4.93;1.30;;;9.80;68.30;;;;;;4976307;28;20583;-89
2023/01/08 03:49:27;;;;;;;6.07;1.33;;;9.70;61.40;;;;;;4979621;28;20180;-89
2023/01/08 03:51:53;;;;;;;4.17;1.20;;;9.70;56.30;;;;;;4980139;28;20178;-88
2023/01/08 03:54:23;;;;;;;4.87;1.43;;;9.60;52.60;;;;;;4988218;28;20168;-86
2023/01/08 03:56:49;;;;;;;4.13;1.40;;;9.60;51.90;;;;;;4998288;28;20203;-86
2023/01/08 03:59:15;;;;;;;4.80;1.63;;;9.60;50.60;;;;;;4991111;28;20198;-88
2023/01/08 04:01:42;;;;;;;5.17;1.37;;;9.60;50.20;;;;;;4982895;28;20256;-86
2023/01/08 04:04:08;;;;;;;5.50;1.53;;;9.50;51.40;;;;;;4999037;28;20160;-86
2023/01/08 04:06:33;;;;;;;7.50;1.80;;;9.60;51.30;;;;;;4991172;28;20207;-88
2023/01/08 04:09:00;;;;;;;8.30;2.03;;;9.60;51.00;;;;;;4984849;28;20172;-88
2023/01/08 04:11:29;;;;;;;6.90;1.73;;;9.50;51.70;;;;;;4981564;28;20227;-88
2023/01/08 04:13:55;;;;;;;6.13;1.50;;;9.40;53.50;;;;;;4981769;28;20237;-88
2023/01/08 04:16:21;;;;;;;6.57;1.83;;;9.40;56.30;;;;;;4982678;28;20219;-88
2023/01/08 04:18:47;;;;;;;8.90;2.20;;;9.50;56.10;;;;;;4980181;28;20302;-89
2023/01/08 04:21:12;;;;;;;6.67;1.77;;;9.30;57.00;;;;;;4987575;28;20229;-87
2023/01/08 04:23:38;;;;;;;8.73;1.77;;;9.30;59.60;;;;;;5002278;28;20159;-86
2023/01/08 04:26:06;;;;;;;6.70;1.70;;;9.30;62.50;;;;;;4990153;28;20596;-89
2023/01/08 04:28:32;;;;;;;8.23;1.93;;;9.20;65.00;;;;;;4983119;28;20266;-89
2023/01/08 04:31:28;;;;;;;4.83;2.13;;;9.10;66.80;;;;;;4979679;28;20179;-89
2023/01/08 04:33:53;;;;;;;7.60;1.90;;;9.10;70.80;;;;;;4979838;28;20199;-88
2023/01/08 04:36:19;;;;;;;7.37;1.87;;;9.10;69.60;;;;;;4978530;28;20250;-88
2023/01/08 04:38:45;;;;;;;4.57;1.57;;;9.20;70.00;;;;;;4978409;28;20270;-89
2023/01/08 04:41:10;;;;;;;6.37;1.80;;;9.20;69.00;;;;;;4979023;28;20227;-88
2023/01/08 04:43:36;;;;;;;6.67;1.83;;;9.40;68.30;;;;;;4978928;28;20662;-89
2023/01/08 04:46:03;;;;;;;6.77;2.10;;;9.10;72.30;;;;;;4997201;28;20279;-88
2023/01/08 04:48:30;;;;;;;8.30;2.30;;;9.10;74.70;;;;;;4987635;28;20199;-88
2023/01/08 04:51:03;;;;;;;7.60;1.83;;;9.10;74.70;;;;;;4983174;28;20595;-88
2023/01/08 04:53:34;;;;;;;8.23;1.73;;;9.10;75.90;;;;;;4978913;28;20175;-89
2023/01/08 04:56:18;;;;;;;8.87;1.90;;;9.00;78.70;;;;;;4982209;28;20191;-88
2023/01/08 04:58:43;;;;;;;8.70;1.90;;;8.90;80.70;;;;;;4980780;28;20262;-89
2023/01/08 05:01:17;;;;;;;7.87;2.07;;;8.90;83.40;;;;;;4979791;28;20175;-88
2023/01/08 05:03:43;;;;;;;5.40;1.67;;;8.80;85.70;;;;;;4977844;28;20225;-89
2023/01/08 05:06:09;;;;;;;6.50;1.77;;;8.80;86.20;;;;;;4977779;28;20251;-89
2023/01/08 05:08:35;;;;;;;6.37;1.97;;;8.80;86.00;;;;;;4977939;28;20207;-88
2023/01/08 05:11:02;;;;;;;8.00;1.93;;;8.80;87.40;;;;;;4978439;28;20239;-88
2023/01/08 05:13:28;;;;;;;7.17;1.70;;;8.70;87.50;;;;;;4977732;28;20176;-89
2023/01/08 05:15:57;;;;;;;10.13;2.30;;;8.70;87.70;;;;;;4977178;28;20186;-88
2023/01/08 05:18:22;;;;;;;11.20;2.33;;;8.70;88.10;;;;;;4978022;28;20179;-89
2023/01/08 05:20:48;;;;;;;7.87;1.90;;;8.70;87.30;;;;;;4978237;28;20179;-88
2023/01/08 05:23:14;;;;;;;8.80;1.93;;;8.80;84.60;;;;;;4977220;28;20202;-87
2023/01/08 05:25:40;;;;;;;8.60;2.00;;;8.70;80.90;;;;;;4977153;28;20257;-88
2023/01/08 05:28:05;;;;;;;8.90;1.60;;;8.70;80.60;;;;;;4983350;28;20164;-87
2023/01/08 05:30:31;;;;;;;4.67;1.60;;;8.60;79.40;;;;;;4996591;28;20186;-88
2023/01/08 05:32:56;;;;;;;7.47;2.20;;;8.60;80.50;;;;;;4993508;28;20183;-83
2023/01/08 05:35:22;;;;;;;6.23;1.77;;;8.60;82.50;;;;;;4993797;28;20175;-86
2023/01/08 05:37:48;;;;;;;8.30;2.33;;;8.60;80.80;;;;;;4984320;28;20248;-85
2023/01/08 05:40:13;;;;;;;4.73;1.50;;;8.50;80.40;;;;;;4984281;28;20184;-88
2023/01/08 05:42:39;;;;;;;8.20;2.13;;;8.50;79.70;;;;;;4980571;28;20215;-88
2023/01/08 05:45:10;;;;;;;9.67;1.77;;;8.50;79.30;;;;;;4978727;28;20242;-89
2023/01/08 05:47:36;;;;;;;5.40;1.50;;;8.50;78.20;;;;;;4978900;28;20227;-89
2023/01/08 05:50:03;;;;;;;8.03;2.13;;;8.50;78.50;;;;;;4978601;28;20692;-89
2023/01/08 05:52:29;;;;;;;6.40;1.87;;;8.40;78.30;;;;;;4978488;28;20179;-89
2023/01/08 05:54:58;;;;;;;10.23;2.10;;;8.40;77.60;;;;;;4983418;28;20186;-89
2023/01/08 05:57:24;;;;;;;9.67;1.63;;;8.40;77.90;;;;;;4977757;28;20200;-88
2023/01/08 05:59:50;;;;;;;5.53;1.67;;;8.40;76.70;;;;;;4978215;28;20668;-89
2023/01/08 06:02:16;;;;;;;9.77;1.77;;;8.30;77.10;;;;;;4987585;28;20164;-89
2023/01/08 06:04:42;;;;;;;6.77;1.90;;;8.40;76.30;;;;;;4993417;28;20167;-88
2023/01/08 06:07:08;;;;;;;8.73;1.83;;;8.40;77.40;;;;;;4983585;28;20556;-88
2023/01/08 06:09:33;;;;;;;6.10;1.50;;;8.40;77.50;;;;;;4977345;28;20183;-89
2023/01/08 06:11:59;;;;;;;7.37;1.60;;;8.40;76.60;;;;;;4977718;28;20183;-89
2023/01/08 06:14:25;;;;;;;10.10;1.90;;;8.40;77.00;;;;;;4977414;28;20172;-89
2023/01/08 06:16:51;;;;;;;7.30;1.90;;;8.40;78.00;;;;;;4976850;28;20187;-88
2023/01/08 06:19:18;;;;;;;7.43;1.67;;;8.40;79.50;;;;;;4998116;28;20218;-87
2023/01/08 06:21:44;;;;;;;9.20;2.20;;;8.40;79.60;;;;;;4993568;28;20195;-87
2023/01/08 06:24:11;;;;;;;5.20;2.10;;;8.50;80.90;;;;;;4987707;28;20171;-88
2023/01/08 06:26:38;;;;;;;9.90;1.97;;;8.40;81.80;;;;;;4977145;28;20208;-87
2023/01/08 06:29:04;;;;;;;9.50;1.83;;;8.40;83.70;;;;;;4976971;28;20168;-87
2023/01/08 06:31:30;;;;;;;6.53;1.73;;;8.50;84.70;;;;;;4999044;28;20183;-82
2023/01/08 06:33:56;;;;;;;9.27;2.17;;;8.50;85.40;;;;;;4991792;28;20241;-84
2023/01/08 06:36:25;;;;;;;6.40;2.20;;;8.50;87.10;;;;;;4979988;28;20258;-83
2023/01/08 06:38:51;;;;;;;7.63;1.50;;;8.50;88.70;;;;;;4978645;28;20291;-89
2023/01/08 06:41:16;;;;;;;6.87;1.87;;;8.50;90.00;;;;;;4978242;28;20219;-88
2023/01/08 06:43:43;;;;;;;8.43;1.97;;;8.50;90.60;;;;;;4976810;28;20183;-89
2023/01/08 06:46:09;;;;;;;10.60;2.20;;;8.50;91.30;;;;;;4995242;28;20270;-89
2023/01/08 06:48:36;;;;;;;9.97;2.00;;;8.50;92.10;;;;;;4992814;28;20187;-88
2023/01/08 06:51:02;;;;;;;9.67;2.50;;;8.50;92.30;;;;;;4985955;28;20190;-88
2023/01/08 06:53:32;;;;;;;5.20;1.87;;;8.50;93.10;;;;;;4990919;28;20175;-87
2023/01/08 06:55:59;;;;;;;6.90;1.93;;;8.60;93.50;;;;;;4975822;28;20226;-89
2023/01/08 06:58:29;;;;;;;8.87;2.27;;;8.50;94.10;;;;;;4982311;28;20199;-90
2023/01/08 07:00:57;;;;;;;8.63;2.03;;;8.50;95.70;;;;;;4978477;28;20175;-89
2023/01/08 07:03:23;;;;;;;5.43;2.20;;;8.60;95.90;;;;;;4977286;28;20175;-89
2023/01/08 07:05:49;;;;;;;8.57;2.07;;;8.60;96.50;;;;;;4985437;28;20195;-86
2023/01/08 07:08:16;;;;;;;9.17;2.77;;;8.60;96.70;;;;;;4998640;28;20160;-88
2023/01/08 07:10:43;;;;;;;9.23;3.07;;;8.70;97.10;;;;;;4994405;28;20255;-89
2023/01/08 07:13:08;;;;;;;9.67;2.13;;;8.60;97.70;;;;;;4995340;28;20239;-90
2023/01/08 07:15:38;;;;;;;8.23;2.17;;;8.60;98.10;;;;;;4987199;28;20179;-90
2023/01/08 07:18:18;;;;;;;9.13;2.70;;;8.70;99.10;;;;;;4984074;28;20191;-89
2023/01/08 07:20:44;;;;;;;10.03;3.23;;;8.70;98.90;;;;;;4984596;28;20183;-89
2023/01/08 07:23:13;;;;;;;7.93;2.23;;;8.70;99.20;;;;;;4980232;28;20176;-90
2023/01/08 07:25:43;;;;;;;6.40;2.07;;;8.70;99.80;;;;;;4978419;28;20206;-88
2023/01/08 07:28:12;;;;;;;9.67;2.43;;;8.70;99.90;;;;;;4978816;28;20175;-89
2023/01/08 07:30:43;;;;;;;6.57;2.10;;;8.80;99.90;;;;;;4979151;28;20163;-89
2023/01/08 07:33:09;;;;;;;6.23;1.93;;;8.70;99.90;;;;;;4979208;28;20180;-88
2023/01/08 07:35:35;;;;;;;7.53;2.37;;;8.70;99.90;;;;;;4982677;28;20184;-87
2023/01/08 07:38:01;;;;;;;6.80;2.33;;;8.70;99.90;;;;;;4982800;28;20207;-86
2023/01/08 07:40:27;;;;;;;11.60;2.87;;;8.70;99.90;;;;;;4978738;28;20263;-88
2023/01/08 07:43:00;;;;;;;8.13;2.50;;;8.80;99.90;;;;;;4959266;28;20214;-89
2023/01/08 07:45:27;;;;;;;9.27;2.43;;;8.90;99.90;;;;;;4975137;28;20199;-89
2023/01/08 07:47:52;;;;;;;11.57;2.27;;;8.90;99.90;;;;;;4982456;28;20674;-87
2023/01/08 07:50:18;;;;;;;9.57;2.57;;;8.90;99.90;;;;;;4991693;28;20182;-87
2023/01/08 07:52:44;;;;;;;7.87;2.60;;;8.80;99.90;;;;;;4986439;28;20168;-88
2023/01/08 07:55:09;;;;;;;9.60;2.83;;;8.90;99.90;;;;;;4981800;28;20235;-89
2023/01/08 07:57:35;;;;;;;7.93;2.60;;;8.80;99.90;;;;;;4975927;28;20679;-89
2023/01/08 08:00:01;;;;;;;8.97;2.87;;;8.80;99.90;;;;;;4975750;28;20175;-89
2023/01/08 08:02:26;;;;;;;6.73;2.50;;;8.90;99.90;;;;;;4974929;28;20187;-89
2023/01/08 08:04:52;;;;;;;12.33;2.77;;;8.90;99.90;;;;;;4975826;28;20529;-89
2023/01/08 08:07:17;;;;;;;10.27;3.17;;;9.00;99.90;;;;;;4975249;28;20216;-88
2023/01/08 08:09:43;;;;;;;8.60;2.40;;;9.00;99.90;;;;;;4975263;28;20519;-89
2023/01/08 08:12:09;;;;;;;8.93;2.33;;;9.00;99.90;;;;;;4975617;28;20210;-88
2023/01/08 08:14:35;;;;;;;8.27;2.50;;;9.10;99.90;;;;;;4975761;28;20186;-88
2023/01/08 08:17:01;;;;;;;8.27;2.40;;;9.00;99.90;;;;;;4976129;28;20183;-90
2023/01/08 08:19:30;;;;;;;9.90;2.37;;;9.10;99.90;;;;;;4977608;28;20186;-88
2023/01/08 08:21:56;;;;;;;6.53;2.07;;;9.10;99.90;;;;;;4977859;28;20175;-89
2023/01/08 08:24:22;;;;;;;5.57;1.90;;;9.20;99.90;;;;;;4989856;28;20168;-88
2023/01/08 08:26:49;;;;;;;6.27;2.20;;;9.20;99.90;;;;;;4997988;28;20214;-91
2023/01/08 08:29:16;;;;;;;4.67;1.90;;;9.10;99.90;;;;;;4984614;28;20172;-89
2023/01/08 08:31:48;;;;;;;4.50;1.90;;;9.10;99.90;;;;;;4986055;28;20163;-87
2023/01/08 08:34:14;;;;;;;6.70;2.20;;;9.20;99.90;;;;;;4997160;28;20223;-88
2023/01/08 08:36:40;;;;;;;4.83;2.00;;;9.20;99.90;;;;;;4998056;28;20220;-86
2023/01/08 08:39:06;;;;;;;5.87;2.17;;;9.10;99.90;;;;;;4996927;28;20191;-87
2023/01/08 08:41:35;;;;;;;4.67;2.00;;;9.10;99.90;;;;;;4998244;28;20179;-85
2023/01/08 08:44:04;;;;;;;5.97;2.03;;;9.10;99.90;;;;;;4997960;28;20187;-87
2023/01/08 08:46:39;;;;;;;8.00;2.10;;;9.20;99.90;;;;;;4997775;28;20203;-85
2023/01/08 08:49:09;;;;;;;3.90;2.00;;;9.20;99.90;;;;;;4993379;28;20180;-88
2023/01/08 08:51:35;;;;;;;7.37;2.30;;;9.30;99.10;;;;;;4976291;28;20191;-87
2023/01/08 08:54:00;;;;;;;6.57;1.97;;;9.20;97.90;;;;;;4980016;28;20239;-88
2023/01/08 08:56:29;;;;;;;5.93;1.70;;;9.30;97.60;;;;;;4977590;28;20176;-90
2023/01/08 08:58:56;;;;;;;6.50;1.77;;;9.20;97.20;;;;;;4963875;28;20227;-83
2023/01/08 09:01:22;;;;;;;5.47;1.40;;;9.20;96.20;;;;;;5000426;28;20197;-82
2023/01/08 09:03:48;;;;;;;5.80;1.53;;;9.30;95.20;;;;;;4999827;28;20227;-83
2023/01/08 09:06:14;;;;;;;3.77;1.20;;;9.30;93.60;;;;;;4987006;28;20683;-82
2023/01/08 09:08:40;;;;;;;3.50;1.33;;;9.20;91.30;;;;;;4984151;28;20211;-85
2023/01/08 09:11:07;;;;;;;3.00;1.00;;;9.20;88.90;;;;;;4978607;28;20184;-85
2023/01/08 09:13:32;;;;;;;1.37;0.80;;;9.20;86.80;;;;;;4979267;28;20176;-89
2023/01/08 09:16:00;;;;;;;2.73;0.97;;;9.30;84.20;;;;;;4980397;28;20179;-89
2023/01/08 09:18:29;;;;;;;3.17;1.43;;;9.30;80.40;;;;;;4978506;28;20357;-89
2023/01/08 09:20:54;;;;;;;2.80;1.30;;;9.30;77.90;;;;;;4979653;28;20620;-86
2023/01/08 09:23:22;;;;;;;2.00;0.97;;;9.30;76.90;;;;;;4980636;28;20180;-86
2023/01/08 09:25:48;;;;;;;2.20;0.80;;;9.40;74.00;;;;;;4979127;28;20695;-88
2023/01/08 09:28:14;;;;;;;1.77;0.90;;;9.30;72.50;;;;;;4980301;28;20179;-88
2023/01/08 09:30:39;;;;;;;2.03;0.70;;;9.30;72.70;;;;;;4979974;28;20719;-89
2023/01/08 09:33:09;;;;;;;1.80;0.90;;;9.50;71.40;;;;;;4979889;28;20208;-88
2023/01/08 09:35:34;;;;;;;1.80;0.67;;;9.40;67.70;;;;;;4980755;28;20219;-88
2023/01/08 09:38:01;;;;;;;1.37;0.77;;;9.50;67.80;;;;;;4981529;28;20589;-88
2023/01/08 09:40:45;;;;;;;1.13;0.67;;;9.60;65.90;;;;;;4979595;28;20179;-89
2023/01/08 09:43:19;;;;;;;1.57;0.93;;;9.70;61.90;;;;;;4980652;28;20183;-88
2023/01/08 09:45:53;;;;;;;2.57;0.90;;;9.70;60.60;;;;;;4979561;28;20227;-89
2023/01/08 09:48:24;;;;;;;2.07;1.13;;;9.70;59.20;;;;;;4983599;28;20191;-90
2023/01/08 09:50:51;;;;;;;2.50;1.20;;;9.70;57.30;;;;;;4985275;28;20210;-89
2023/01/08 09:53:17;;;;;;;1.67;0.80;;;9.80;59.70;;;;;;4981420;28;20175;-89
2023/01/08 09:55:45;;;;;;;1.53;0.70;;;9.70;59.10;;;;;;4982412;28;20186;-89
2023/01/08 09:58:40;;;;;;;1.90;0.80;;;9.80;58.90;;;;;;4979756;28;20313;-88
2023/01/08 10:01:08;;;;;;;4.40;1.57;;;9.70;59.40;;;;;;4987426;28;20239;-88
2023/01/08 10:03:45;;;;;;;1.80;0.87;;;9.80;58.60;;;;;;4991968;28;20258;-90
2023/01/08 10:06:13;;;;;;;1.27;0.80;;;9.80;58.70;;;;;;4997723;28;20210;-88
2023/01/08 10:08:40;;;;;;;2.77;1.00;;;9.80;58.20;;;;;;4995246;28;20175;-88
2023/01/08 10:11:09;;;;;;;3.30;1.00;;;9.90;59.50;;;;;;4987628;28;20199;-87
2023/01/08 10:13:38;;;;;;;2.57;1.13;;;9.80;59.60;;;;;;4979894;28;20201;-90
2023/01/08 10:16:15;;;;;;;2.73;1.20;;;9.80;60.50;;;;;;4978793;28;20178;-89
2023/01/08 10:18:42;;;;;;;4.63;1.20;;;9.90;60.20;;;;;;4982291;28;20167;-89
2023/01/08 10:21:13;;;;;;;3.93;1.30;;;9.90;58.90;;;;;;4978957;28;20659;-89
2023/01/08 10:23:48;;;;;;;4.00;1.10;;;10.10;57.20;;;;;;4976978;28;20199;-86
2023/01/08 10:26:25;;;;;;;3.77;1.10;;;10.10;55.50;;;;;;4985578;28;20211;-89
2023/01/08 10:28:51;;;;;;;2.93;1.43;;;10.20;54.20;;;;;;4987781;28;20168;-88
2023/01/08 10:31:17;;;;;;;3.47;1.20;;;10.20;51.10;;;;;;4988542;28;20199;-87
2023/01/08 10:33:47;;;;;;;4.07;1.33;;;10.20;48.70;;;;;;4991639;28;20191;-85
2023/01/08 10:36:23;;;;;;;3.87;1.60;;;10.40;48.10;;;;;;4983573;28;20168;-87
2023/01/08 10:39:01;;;;;;;3.63;1.80;;;10.50;44.90;;;;;;4979976;28;20168;-89
2023/01/08 10:41:28;;;;;;;4.47;1.33;;;10.40;44.20;;;;;;4979512;28;20191;-88
2023/01/08 10:44:06;;;;;;;5.97;1.70;;;10.30;45.20;;;;;;4978679;28;20188;-88
2023/01/08 10:46:40;;;;;;;3.63;1.57;;;10.40;45.30;;;;;;4983313;28;20207;-88
2023/01/08 10:49:12;;;;;;;6.40;1.60;;;10.50;41.90;;;;;;4984639;28;20197;-90
2023/01/08 10:51:49;;;;;;;5.10;1.70;;;10.50;39.90;;;;;;4980215;28;20198;-90
2023/01/08 10:54:33;;;;;;;5.23;1.77;;;10.60;37.70;;;;;;4979856;28;20175;-89
2023/01/08 10:56:59;;;;;;;6.57;2.00;;;10.50;39.90;;;;;;4980213;28;20180;-90
2023/01/08 10:59:24;;;;;;;4.00;1.70;;;10.60;39.50;;;;;;4979394;28;20234;-88
2023/01/08 11:01:54;;;;;;;5.37;1.80;;;10.60;40.40;;;;;;4982187;28;20708;-89
2023/01/08 11:04:35;;;;;;;3.53;1.40;;;10.70;37.60;;;;;;4981657;28;20176;-90
2023/01/08 11:07:04;;;;;;;3.30;1.30;;;10.80;39.10;;;;;;4987800;28;20208;-88
2023/01/08 11:09:44;;;;;;;5.90;1.77;;;10.60;42.30;;;;;;4998518;28;20176;-85
2023/01/08 11:12:45;;;;;;;4.60;1.63;;;10.50;42.70;;;;;;4996134;28;20193;-89
2023/01/08 11:15:17;;;;;;;4.13;1.60;;;10.50;41.00;;;;;;4988821;28;20214;-89
2023/01/08 11:17:44;;;;;;;3.47;1.63;;;10.50;40.90;;;;;;4986086;28;20159;-89
2023/01/08 11:20:19;;;;;;;3.77;1.80;;;10.60;38.70;;;;;;4982299;28;20175;-90
2023/01/08 11:22:45;;;;;;;5.87;2.17;;;10.60;39.20;;;;;;4977561;28;20175;-89
2023/01/08 11:25:21;;;;;;;4.90;1.90;;;10.80;36.40;;;;;;4979680;28;20175;-89
2023/01/08 11:27:49;;;;;;;4.27;1.70;;;10.90;33.30;;;;;;4978391;28;20191;-89
2023/01/08 11:30:26;;;;;;;4.10;1.50;;;10.80;28.70;;;;;;4976998;28;20178;-90
2023/01/08 11:32:56;;;;;;;5.00;1.90;;;10.60;30.90;;;;;;4977876;28;20186;-88
2023/01/08 11:35:27;;;;;;;7.53;1.50;;;10.60;30.60;;;;;;4976587;28;20164;-88
2023/01/08 11:37:57;;;;;;;6.13;1.80;;;10.50;34.30;;;;;;4994549;28;20144;-88
2023/01/08 11:40:42;;;;;;;4.77;1.73;;;10.60;35.70;;;;;;4991910;28;20175;-89
2023/01/08 11:43:24;;;;;;;6.67;1.77;;;10.60;35.40;;;;;;4985391;28;20203;-89
2023/01/08 11:45:58;;;;;;;3.13;1.27;;;10.60;33.60;;;;;;4984724;28;20187;-90
2023/01/08 11:48:46;;;;;;;4.93;1.93;;;10.50;33.40;;;;;;4996773;28;20190;-87
2023/01/08 11:51:41;;;;;;;5.30;1.50;;;10.60;32.30;;;;;;4998213;28;20163;-86
2023/01/08 11:54:39;;;;;;;5.37;1.50;;;10.80;30.00;;;;;;4993209;28;20180;-89
2023/01/08 11:57:29;;;;;;;4.80;1.53;;;10.90;25.30;;;;;;4992523;28;20278;-89
2023/01/08 12:00:18;;;;;;;8.13;1.70;;;10.80;23.80;;;;;;4996065;28;20194;-87
2023/01/08 12:03:06;;;;;;;6.57;1.60;;;11.00;22.90;;;;;;4996128;28;20238;-88
2023/01/08 12:05:58;;;;;;;4.27;1.50;;;10.90;19.50;;;;;;4994128;28;20175;-91
2023/01/08 12:09:01;;;;;;;5.07;1.60;;;10.90;22.70;;;;;;4993177;28;20187;-89
2023/01/08 12:12:01;;;;;;;3.23;1.40;;;10.90;22.40;;;;;;4984379;28;20198;-89
2023/01/08 12:14:52;;;;;;;8.73;1.90;;;11.00;18.20;;;;;;4977147;28;20183;-91
2023/01/08 12:17:58;;;;;;;4.07;1.53;;;11.00;19.80;;;;;;4952506;28;20192;-89
2023/01/08 12:21:08;;;;;;;3.47;1.20;;;10.70;18.20;;;;;;4979084;28;20164;-90
2023/01/08 12:23:48;;;;;;;5.63;1.90;;;10.70;22.70;;;;;;4970689;28;20208;-90
2023/01/08 12:26:23;;;;;;;7.20;2.00;;;10.70;25.00;;;;;;4980841;28;20220;-91
2023/01/08 12:29:18;;;;;;;5.77;1.80;;;10.70;24.90;;;;;;4981530;28;20194;-93
2023/01/08 12:32:15;;;;;;;5.50;1.73;;;10.80;22.10;;;;;;5009477;28;20697;-90
2023/01/08 12:34:45;;;;;;;6.60;1.33;;;10.80;23.80;;;;;;5006335;28;20210;-90
2023/01/08 12:37:22;;;;;;;6.47;1.80;;;10.90;25.20;;;;;;5004357;28;20238;-90
2023/01/08 12:40:20;;;;;;;4.43;1.57;;;10.80;24.70;;;;;;5003725;28;20194;-90
2023/01/08 12:42:46;;;;;;;5.10;1.90;;;10.70;24.60;;;;;;4996714;28;20213;-85
2023/01/08 12:45:36;;;;;;;6.07;1.70;;;10.80;24.40;;;;;;5000128;28;20171;-88
2023/01/08 12:48:11;;;;;;;6.13;1.60;;;10.80;21.10;;;;;;5012797;28;20186;-86
2023/01/08 12:50:36;;;;;;;5.80;1.50;;;10.80;22.00;;;;;;5003856;28;20174;-88
2023/01/08 12:53:13;;;;;;;7.87;1.90;;;10.80;21.40;;;;;;5001803;28;20706;-88
2023/01/08 12:56:10;;;;;;;7.03;1.70;;;11.00;20.40;;;;;;5001679;28;20271;-86
2023/01/08 12:59:05;;;;;;;5.73;1.60;;;10.90;19.00;;;;;;5002197;28;20250;-90
2023/01/08 13:01:55;;;;;;;6.07;1.90;;;10.90;15.50;;;;;;5001156;28;20171;-88
2023/01/08 13:04:21;;;;;;;6.60;1.83;;;11.00;14.40;;;;;;5016065;28;20175;-88
2023/01/08 13:06:57;;;;;;;6.33;1.70;;;10.90;14.20;;;;;;5014128;28;20210;-88
2023/01/08 13:09:27;;;;;;;3.97;1.40;;;10.90;12.60;;;;;;5006748;28;20171;-87
2023/01/08 13:12:04;;;;;;;5.53;1.50;;;10.90;13.40;;;;;;4989739;28;20175;-90
2023/01/08 13:14:40;;;;;;;6.70;1.80;;;11.10;10.90;;;;;;4981475;28;20280;-88
2023/01/08 13:17:16;;;;;;;5.70;1.80;;;11.10;5.90;;;;;;4981081;28;20167;-88